sensor_id;sensor_type;location;lat;lon;timestamp;P1;durP1;ratioP1;P2;durP2;ratioP2
69005;SDS011;56061;51.748;19.620;2022-09-01T00:02:18;3.80;;;1.80;;
69005;SDS011;56061;51.748;19.620;2022-09-01T00:04:46;3.70;;;1.60;;
69005;SDS011;56061;51.748;19.620;2022-09-01T00:07:13;5.50;;;2.20;;
69005;SDS011;56061;51.748;19.620;2022-09-01T00:09:40;5.20;;;2.00;;
69005;SDS011;56061;51.748;19.620;2022-09-01T00:12:08;4.20;;;1.80;;
69005;SDS011;56061;51.748;19.620;2022-09-01T00:14:38;5.40;;;1.90;;
69005;SDS011;56061;51.748;19.620;2022-09-01T00:17:09;5.50;;;1.90;;
69005;SDS011;56061;51.748;19.620;2022-09-01T00:19:38;5.60;;;2.20;;
69005;SDS011;56061;51.748;19.620;2022-09-01T00:22:06;3.90;;;1.90;;
69005;SDS011;56061;51.748;19.620;2022-09-01T00:24:34;4.40;;;1.90;;
69005;SDS011;56061;51.748;19.620;2022-09-01T00:27:01;4.70;;;2.00;;
69005;SDS011;56061;51.748;19.620;2022-09-01T00:29:27;4.60;;;1.90;;
69005;SDS011;56061;51.748;19.620;2022-09-01T00:31:54;4.80;;;2.10;;
69005;SDS011;56061;51.748;19.620;2022-09-01T00:34:21;3.40;;;1.60;;
69005;SDS011;56061;51.748;19.620;2022-09-01T00:36:48;6.00;;;1.70;;
69005;SDS011;56061;51.748;19.620;2022-09-01T00:39:15;5.10;;;1.50;;
69005;SDS011;56061;51.748;19.620;2022-09-01T00:41:42;3.60;;;1.50;;
69005;SDS011;56061;51.748;19.620;2022-09-01T00:44:14;5.00;;;1.80;;
69005;SDS011;56061;51.748;19.620;2022-09-01T00:46:46;3.90;;;1.70;;
69005;SDS011;56061;51.748;19.620;2022-09-01T00:49:31;4.80;;;1.80;;
69005;SDS011;56061;51.748;19.620;2022-09-01T00:52:13;3.30;;;1.50;;
69005;SDS011;56061;51.748;19.620;2022-09-01T00:54:48;3.40;;;1.70;;
69005;SDS011;56061;51.748;19.620;2022-09-01T00:57:18;3.10;;;1.40;;
69005;SDS011;56061;51.748;19.620;2022-09-01T00:59:50;2.50;;;1.30;;
69005;SDS011;56061;51.748;19.620;2022-09-01T01:02:21;4.80;;;1.60;;
69005;SDS011;56061;51.748;19.620;2022-09-01T01:04:49;4.20;;;2.00;;
69005;SDS011;56061;51.748;19.620;2022-09-01T01:07:18;3.80;;;1.50;;
69005;SDS011;56061;51.748;19.620;2022-09-01T01:09:49;3.10;;;1.50;;
69005;SDS011;56061;51.748;19.620;2022-09-01T01:12:17;4.70;;;1.50;;
69005;SDS011;56061;51.748;19.620;2022-09-01T01:14:47;5.50;;;1.70;;
69005;SDS011;56061;51.748;19.620;2022-09-01T01:17:17;4.10;;;1.70;;
69005;SDS011;56061;51.748;19.620;2022-09-01T01:19:54;3.80;;;1.60;;
69005;SDS011;56061;51.748;19.620;2022-09-01T01:25:44;3.30;;;1.30;;
69005;SDS011;56061;51.748;19.620;2022-09-01T01:30:51;4.20;;;1.30;;
69005;SDS011;56061;51.748;19.620;2022-09-01T01:33:26;3.50;;;1.70;;
69005;SDS011;56061;51.748;19.620;2022-09-01T01:35:56;5.40;;;1.80;;
69005;SDS011;56061;51.748;19.620;2022-09-01T01:38:27;3.60;;;1.60;;
69005;SDS011;56061;51.748;19.620;2022-09-01T01:40:55;3.20;;;1.30;;
69005;SDS011;56061;51.748;19.620;2022-09-01T01:43:23;2.80;;;1.40;;
69005;SDS011;56061;51.748;19.620;2022-09-01T01:45:53;2.80;;;1.40;;
69005;SDS011;56061;51.748;19.620;2022-09-01T01:48:24;4.70;;;1.50;;
69005;SDS011;56061;51.748;19.620;2022-09-01T01:50:52;3.70;;;1.40;;
69005;SDS011;56061;51.748;19.620;2022-09-01T01:53:20;4.60;;;1.50;;
69005;SDS011;56061;51.748;19.620;2022-09-01T01:55:47;2.80;;;1.40;;
69005;SDS011;56061;51.748;19.620;2022-09-01T01:58:20;2.50;;;1.40;;
69005;SDS011;56061;51.748;19.620;2022-09-01T02:00:49;3.60;;;1.60;;
69005;SDS011;56061;51.748;19.620;2022-09-01T02:03:22;4.60;;;1.80;;
69005;SDS011;56061;51.748;19.620;2022-09-01T02:05:51;2.20;;;1.30;;
69005;SDS011;56061;51.748;19.620;2022-09-01T02:08:21;3.40;;;1.30;;
69005;SDS011;56061;51.748;19.620;2022-09-01T02:10:53;2.40;;;1.20;;
69005;SDS011;56061;51.748;19.620;2022-09-01T02:13:22;2.50;;;1.20;;
69005;SDS011;56061;51.748;19.620;2022-09-01T02:16:02;3.50;;;1.40;;
69005;SDS011;56061;51.748;19.620;2022-09-01T02:18:36;2.80;;;1.40;;
69005;SDS011;56061;51.748;19.620;2022-09-01T02:21:06;4.10;;;1.40;;
69005;SDS011;56061;51.748;19.620;2022-09-01T02:23:41;3.60;;;1.60;;
69005;SDS011;56061;51.748;19.620;2022-09-01T02:26:08;4.70;;;1.40;;
69005;SDS011;56061;51.748;19.620;2022-09-01T02:28:44;4.10;;;1.40;;
69005;SDS011;56061;51.748;19.620;2022-09-01T02:31:21;4.80;;;1.40;;
69005;SDS011;56061;51.748;19.620;2022-09-01T02:33:48;3.50;;;1.30;;
69005;SDS011;56061;51.748;19.620;2022-09-01T02:36:16;4.70;;;1.60;;
69005;SDS011;56061;51.748;19.620;2022-09-01T02:38:45;2.10;;;1.20;;
69005;SDS011;56061;51.748;19.620;2022-09-01T02:41:21;3.80;;;1.40;;
69005;SDS011;56061;51.748;19.620;2022-09-01T02:43:52;4.20;;;1.50;;
69005;SDS011;56061;51.748;19.620;2022-09-01T02:46:19;3.30;;;1.50;;
69005;SDS011;56061;51.748;19.620;2022-09-01T02:48:50;3.20;;;1.50;;
69005;SDS011;56061;51.748;19.620;2022-09-01T02:51:20;2.60;;;1.30;;
69005;SDS011;56061;51.748;19.620;2022-09-01T02:53:48;3.00;;;1.30;;
69005;SDS011;56061;51.748;19.620;2022-09-01T02:56:22;2.10;;;1.10;;
69005;SDS011;56061;51.748;19.620;2022-09-01T02:58:51;2.60;;;1.40;;
69005;SDS011;56061;51.748;19.620;2022-09-01T03:01:30;2.80;;;1.40;;
69005;SDS011;56061;51.748;19.620;2022-09-01T03:04:01;2.90;;;1.30;;
69005;SDS011;56061;51.748;19.620;2022-09-01T03:06:31;4.00;;;1.50;;
69005;SDS011;56061;51.748;19.620;2022-09-01T03:09:01;3.40;;;1.70;;
69005;SDS011;56061;51.748;19.620;2022-09-01T03:11:33;4.40;;;1.50;;
69005;SDS011;56061;51.748;19.620;2022-09-01T03:14:03;3.40;;;1.60;;
69005;SDS011;56061;51.748;19.620;2022-09-01T03:16:31;3.80;;;1.60;;
69005;SDS011;56061;51.748;19.620;2022-09-01T03:18:59;3.20;;;1.70;;
69005;SDS011;56061;51.748;19.620;2022-09-01T03:21:28;5.20;;;1.70;;
69005;SDS011;56061;51.748;19.620;2022-09-01T03:23:57;4.20;;;1.80;;
69005;SDS011;56061;51.748;19.620;2022-09-01T03:26:27;3.30;;;1.50;;
69005;SDS011;56061;51.748;19.620;2022-09-01T03:28:55;4.30;;;1.90;;
69005;SDS011;56061;51.748;19.620;2022-09-01T03:31:22;3.40;;;1.70;;
69005;SDS011;56061;51.748;19.620;2022-09-01T03:33:57;4.60;;;1.60;;
69005;SDS011;56061;51.748;19.620;2022-09-01T03:36:26;4.10;;;1.70;;
69005;SDS011;56061;51.748;19.620;2022-09-01T03:38:54;3.30;;;1.90;;
69005;SDS011;56061;51.748;19.620;2022-09-01T03:41:24;3.10;;;1.70;;
69005;SDS011;56061;51.748;19.620;2022-09-01T03:43:54;3.70;;;1.70;;
69005;SDS011;56061;51.748;19.620;2022-09-01T03:46:24;4.30;;;1.50;;
69005;SDS011;56061;51.748;19.620;2022-09-01T03:48:56;6.60;;;2.10;;
69005;SDS011;56061;51.748;19.620;2022-09-01T03:51:24;7.10;;;2.10;;
69005;SDS011;56061;51.748;19.620;2022-09-01T03:53:52;5.20;;;2.00;;
69005;SDS011;56061;51.748;19.620;2022-09-01T03:56:25;4.00;;;1.70;;
69005;SDS011;56061;51.748;19.620;2022-09-01T04:01:30;6.20;;;1.90;;
69005;SDS011;56061;51.748;19.620;2022-09-01T04:03:59;4.80;;;2.10;;
69005;SDS011;56061;51.748;19.620;2022-09-01T04:06:26;4.90;;;1.80;;
69005;SDS011;56061;51.748;19.620;2022-09-01T04:08:53;4.40;;;2.30;;
69005;SDS011;56061;51.748;19.620;2022-09-01T04:11:28;4.20;;;2.00;;
69005;SDS011;56061;51.748;19.620;2022-09-01T04:13:58;5.20;;;1.90;;
69005;SDS011;56061;51.748;19.620;2022-09-01T04:16:28;6.50;;;2.30;;
69005;SDS011;56061;51.748;19.620;2022-09-01T04:19:17;5.40;;;2.10;;
69005;SDS011;56061;51.748;19.620;2022-09-01T04:21:47;4.20;;;1.70;;
69005;SDS011;56061;51.748;19.620;2022-09-01T04:24:20;4.30;;;2.00;;
69005;SDS011;56061;51.748;19.620;2022-09-01T04:26:50;5.80;;;2.30;;
69005;SDS011;56061;51.748;19.620;2022-09-01T04:29:20;6.20;;;2.20;;
69005;SDS011;56061;51.748;19.620;2022-09-01T04:31:58;5.90;;;3.00;;
69005;SDS011;56061;51.748;19.620;2022-09-01T04:34:30;4.50;;;2.00;;
69005;SDS011;56061;51.748;19.620;2022-09-01T04:37:11;4.60;;;2.20;;
69005;SDS011;56061;51.748;19.620;2022-09-01T04:39:53;4.70;;;2.30;;
69005;SDS011;56061;51.748;19.620;2022-09-01T04:42:24;4.80;;;2.20;;
69005;SDS011;56061;51.748;19.620;2022-09-01T04:44:54;7.70;;;2.40;;
69005;SDS011;56061;51.748;19.620;2022-09-01T04:47:23;6.80;;;2.50;;
69005;SDS011;56061;51.748;19.620;2022-09-01T04:50:01;7.20;;;2.50;;
69005;SDS011;56061;51.748;19.620;2022-09-01T04:52:28;4.10;;;2.20;;
69005;SDS011;56061;51.748;19.620;2022-09-01T04:54:57;6.70;;;2.40;;
69005;SDS011;56061;51.748;19.620;2022-09-01T04:57:24;7.10;;;2.60;;
69005;SDS011;56061;51.748;19.620;2022-09-01T04:59:54;7.90;;;2.80;;
69005;SDS011;56061;51.748;19.620;2022-09-01T05:02:22;4.60;;;2.20;;
69005;SDS011;56061;51.748;19.620;2022-09-01T05:04:52;5.40;;;2.40;;
69005;SDS011;56061;51.748;19.620;2022-09-01T05:07:20;5.10;;;2.40;;
69005;SDS011;56061;51.748;19.620;2022-09-01T05:09:46;5.80;;;2.60;;
69005;SDS011;56061;51.748;19.620;2022-09-01T05:12:13;5.40;;;2.10;;
69005;SDS011;56061;51.748;19.620;2022-09-01T05:14:45;5.00;;;2.30;;
69005;SDS011;56061;51.748;19.620;2022-09-01T05:17:14;5.80;;;2.30;;
69005;SDS011;56061;51.748;19.620;2022-09-01T05:19:45;4.90;;;2.30;;
69005;SDS011;56061;51.748;19.620;2022-09-01T05:22:14;5.40;;;2.50;;
69005;SDS011;56061;51.748;19.620;2022-09-01T05:24:43;4.40;;;2.10;;
69005;SDS011;56061;51.748;19.620;2022-09-01T05:27:10;4.30;;;2.10;;
69005;SDS011;56061;51.748;19.620;2022-09-01T05:29:38;3.90;;;2.00;;
69005;SDS011;56061;51.748;19.620;2022-09-01T05:32:07;4.20;;;1.90;;
69005;SDS011;56061;51.748;19.620;2022-09-01T05:34:36;4.30;;;2.10;;
69005;SDS011;56061;51.748;19.620;2022-09-01T05:37:06;4.70;;;2.10;;
69005;SDS011;56061;51.748;19.620;2022-09-01T05:39:35;5.30;;;2.10;;
69005;SDS011;56061;51.748;19.620;2022-09-01T05:42:03;5.10;;;2.20;;
69005;SDS011;56061;51.748;19.620;2022-09-01T05:44:35;4.50;;;1.90;;
69005;SDS011;56061;51.748;19.620;2022-09-01T05:47:02;4.60;;;1.60;;
69005;SDS011;56061;51.748;19.620;2022-09-01T05:49:30;5.70;;;2.30;;
69005;SDS011;56061;51.748;19.620;2022-09-01T05:51:58;5.50;;;1.80;;
69005;SDS011;56061;51.748;19.620;2022-09-01T05:54:26;4.70;;;1.40;;
69005;SDS011;56061;51.748;19.620;2022-09-01T05:56:54;4.20;;;1.50;;
69005;SDS011;56061;51.748;19.620;2022-09-01T05:59:44;3.40;;;1.40;;
69005;SDS011;56061;51.748;19.620;2022-09-01T06:02:12;2.60;;;1.30;;
69005;SDS011;56061;51.748;19.620;2022-09-01T06:04:39;3.40;;;1.60;;
69005;SDS011;56061;51.748;19.620;2022-09-01T06:07:06;3.50;;;1.10;;
69005;SDS011;56061;51.748;19.620;2022-09-01T06:09:42;2.90;;;1.30;;
69005;SDS011;56061;51.748;19.620;2022-09-01T06:12:14;3.70;;;1.50;;
69005;SDS011;56061;51.748;19.620;2022-09-01T06:14:51;2.60;;;1.30;;
69005;SDS011;56061;51.748;19.620;2022-09-01T06:17:21;3.50;;;1.30;;
69005;SDS011;56061;51.748;19.620;2022-09-01T06:19:53;1.90;;;1.00;;
69005;SDS011;56061;51.748;19.620;2022-09-01T06:22:22;4.10;;;1.20;;
69005;SDS011;56061;51.748;19.620;2022-09-01T06:24:53;6.40;;;1.80;;
69005;SDS011;56061;51.748;19.620;2022-09-01T06:27:27;3.40;;;1.40;;
69005;SDS011;56061;51.748;19.620;2022-09-01T06:29:54;3.10;;;1.10;;
69005;SDS011;56061;51.748;19.620;2022-09-01T06:32:23;3.10;;;1.10;;
69005;SDS011;56061;51.748;19.620;2022-09-01T06:34:51;4.30;;;1.10;;
69005;SDS011;56061;51.748;19.620;2022-09-01T06:37:18;3.30;;;1.60;;
69005;SDS011;56061;51.748;19.620;2022-09-01T06:39:48;4.60;;;1.40;;
69005;SDS011;56061;51.748;19.620;2022-09-01T06:42:16;1.30;;;0.80;;
69005;SDS011;56061;51.748;19.620;2022-09-01T06:44:44;4.70;;;1.10;;
69005;SDS011;56061;51.748;19.620;2022-09-01T06:47:11;2.80;;;1.00;;
69005;SDS011;56061;51.748;19.620;2022-09-01T06:49:38;4.40;;;1.10;;
69005;SDS011;56061;51.748;19.620;2022-09-01T06:52:06;2.00;;;0.80;;
69005;SDS011;56061;51.748;19.620;2022-09-01T06:54:33;1.70;;;0.90;;
69005;SDS011;56061;51.748;19.620;2022-09-01T06:57:02;3.20;;;1.00;;
69005;SDS011;56061;51.748;19.620;2022-09-01T06:59:49;2.80;;;0.80;;
69005;SDS011;56061;51.748;19.620;2022-09-01T07:02:36;1.80;;;0.80;;
69005;SDS011;56061;51.748;19.620;2022-09-01T07:05:05;2.40;;;0.80;;
69005;SDS011;56061;51.748;19.620;2022-09-01T07:07:33;2.90;;;0.80;;
69005;SDS011;56061;51.748;19.620;2022-09-01T07:10:21;2.40;;;0.70;;
69005;SDS011;56061;51.748;19.620;2022-09-01T07:12:54;1.50;;;0.80;;
69005;SDS011;56061;51.748;19.620;2022-09-01T07:15:44;1.40;;;0.70;;
69005;SDS011;56061;51.748;19.620;2022-09-01T07:18:34;3.50;;;0.90;;
69005;SDS011;56061;51.748;19.620;2022-09-01T07:21:05;1.50;;;0.70;;
69005;SDS011;56061;51.748;19.620;2022-09-01T07:23:52;1.90;;;0.80;;
69005;SDS011;56061;51.748;19.620;2022-09-01T07:26:38;1.70;;;0.70;;
69005;SDS011;56061;51.748;19.620;2022-09-01T07:29:14;1.50;;;0.80;;
69005;SDS011;56061;51.748;19.620;2022-09-01T07:31:43;1.90;;;0.80;;
69005;SDS011;56061;51.748;19.620;2022-09-01T07:34:30;3.40;;;0.80;;
69005;SDS011;56061;51.748;19.620;2022-09-01T07:37:06;0.90;;;0.70;;
69005;SDS011;56061;51.748;19.620;2022-09-01T07:39:53;2.60;;;0.70;;
69005;SDS011;56061;51.748;19.620;2022-09-01T07:42:21;1.60;;;0.70;;
69005;SDS011;56061;51.748;19.620;2022-09-01T07:45:09;2.40;;;0.70;;
69005;SDS011;56061;51.748;19.620;2022-09-01T07:47:55;1.40;;;0.90;;
69005;SDS011;56061;51.748;19.620;2022-09-01T07:50:22;2.80;;;0.80;;
69005;SDS011;56061;51.748;19.620;2022-09-01T07:53:07;1.70;;;0.70;;
69005;SDS011;56061;51.748;19.620;2022-09-01T07:55:37;3.40;;;0.80;;
69005;SDS011;56061;51.748;19.620;2022-09-01T07:58:06;1.80;;;0.70;;
69005;SDS011;56061;51.748;19.620;2022-09-01T08:00:34;2.00;;;1.00;;
69005;SDS011;56061;51.748;19.620;2022-09-01T08:03:02;2.60;;;0.80;;
69005;SDS011;56061;51.748;19.620;2022-09-01T08:05:28;2.10;;;0.70;;
69005;SDS011;56061;51.748;19.620;2022-09-01T08:07:56;2.90;;;1.00;;
69005;SDS011;56061;51.748;19.620;2022-09-01T08:10:23;1.50;;;0.80;;
69005;SDS011;56061;51.748;19.620;2022-09-01T08:12:50;2.10;;;0.90;;
69005;SDS011;56061;51.748;19.620;2022-09-01T08:15:24;2.80;;;0.80;;
69005;SDS011;56061;51.748;19.620;2022-09-01T08:18:12;2.40;;;0.80;;
69005;SDS011;56061;51.748;19.620;2022-09-01T08:20:41;3.50;;;0.90;;
69005;SDS011;56061;51.748;19.620;2022-09-01T08:23:15;1.50;;;0.80;;
69005;SDS011;56061;51.748;19.620;2022-09-01T08:25:45;3.20;;;0.80;;
69005;SDS011;56061;51.748;19.620;2022-09-01T08:28:14;2.40;;;0.90;;
69005;SDS011;56061;51.748;19.620;2022-09-01T08:30:42;3.50;;;1.00;;
69005;SDS011;56061;51.748;19.620;2022-09-01T08:33:18;2.30;;;0.90;;
69005;SDS011;56061;51.748;19.620;2022-09-01T08:35:46;2.00;;;0.80;;
69005;SDS011;56061;51.748;19.620;2022-09-01T08:38:14;1.90;;;1.00;;
69005;SDS011;56061;51.748;19.620;2022-09-01T08:40:42;2.20;;;1.20;;
69005;SDS011;56061;51.748;19.620;2022-09-01T08:43:22;3.40;;;1.20;;
69005;SDS011;56061;51.748;19.620;2022-09-01T08:46:06;2.10;;;1.40;;
69005;SDS011;56061;51.748;19.620;2022-09-01T08:48:45;4.50;;;1.70;;
69005;SDS011;56061;51.748;19.620;2022-09-01T08:51:49;2.40;;;1.70;;
69005;SDS011;56061;51.748;19.620;2022-09-01T08:54:31;2.70;;;1.30;;
69005;SDS011;56061;51.748;19.620;2022-09-01T08:57:13;1.60;;;1.30;;
69005;SDS011;56061;51.748;19.620;2022-09-01T08:59:45;2.10;;;1.50;;
69005;SDS011;56061;51.748;19.620;2022-09-01T09:02:26;3.20;;;1.70;;
69005;SDS011;56061;51.748;19.620;2022-09-01T09:08:09;3.40;;;1.30;;
69005;SDS011;56061;51.748;19.620;2022-09-01T09:11:00;2.50;;;1.20;;
69005;SDS011;56061;51.748;19.620;2022-09-01T09:13:31;2.20;;;0.80;;
69005;SDS011;56061;51.748;19.620;2022-09-01T09:16:20;2.60;;;0.80;;
69005;SDS011;56061;51.748;19.620;2022-09-01T09:19:15;1.80;;;0.60;;
69005;SDS011;56061;51.748;19.620;2022-09-01T09:21:51;1.60;;;0.70;;
69005;SDS011;56061;51.748;19.620;2022-09-01T09:24:33;1.50;;;0.70;;
69005;SDS011;56061;51.748;19.620;2022-09-01T09:29:51;1.20;;;0.70;;
69005;SDS011;56061;51.748;19.620;2022-09-01T09:32:22;1.60;;;0.90;;
69005;SDS011;56061;51.748;19.620;2022-09-01T09:35:19;1.20;;;0.60;;
69005;SDS011;56061;51.748;19.620;2022-09-01T09:37:49;1.00;;;0.70;;
69005;SDS011;56061;51.748;19.620;2022-09-01T09:40:21;1.70;;;0.80;;
69005;SDS011;56061;51.748;19.620;2022-09-01T09:45:35;1.70;;;0.70;;
69005;SDS011;56061;51.748;19.620;2022-09-01T09:48:27;1.40;;;0.60;;
69005;SDS011;56061;51.748;19.620;2022-09-01T09:51:22;1.60;;;0.80;;
69005;SDS011;56061;51.748;19.620;2022-09-01T09:54:13;2.40;;;0.90;;
69005;SDS011;56061;51.748;19.620;2022-09-01T09:56:44;1.20;;;0.70;;
69005;SDS011;56061;51.748;19.620;2022-09-01T09:59:23;1.90;;;0.70;;
69005;SDS011;56061;51.748;19.620;2022-09-01T10:05:25;1.90;;;0.80;;
69005;SDS011;56061;51.748;19.620;2022-09-01T10:07:55;1.20;;;0.70;;
69005;SDS011;56061;51.748;19.620;2022-09-01T10:10:45;1.90;;;0.70;;
69005;SDS011;56061;51.748;19.620;2022-09-01T10:13:25;1.70;;;0.80;;
69005;SDS011;56061;51.748;19.620;2022-09-01T10:16:01;1.80;;;0.70;;
69005;SDS011;56061;51.748;19.620;2022-09-01T10:18:40;0.70;;;0.60;;
69005;SDS011;56061;51.748;19.620;2022-09-01T10:24:07;0.60;;;0.60;;
69005;SDS011;56061;51.748;19.620;2022-09-01T10:26:56;1.30;;;0.70;;
69005;SDS011;56061;51.748;19.620;2022-09-01T10:29:39;1.40;;;0.80;;
69005;SDS011;56061;51.748;19.620;2022-09-01T10:32:22;1.80;;;0.80;;
69005;SDS011;56061;51.748;19.620;2022-09-01T10:35:04;2.00;;;0.80;;
69005;SDS011;56061;51.748;19.620;2022-09-01T10:37:39;2.20;;;0.70;;
69005;SDS011;56061;51.748;19.620;2022-09-01T10:42:41;1.90;;;0.80;;
69005;SDS011;56061;51.748;19.620;2022-09-01T10:45:36;1.10;;;0.80;;
69005;SDS011;56061;51.748;19.620;2022-09-01T10:48:23;1.90;;;0.80;;
69005;SDS011;56061;51.748;19.620;2022-09-01T10:53:54;1.60;;;0.80;;
69005;SDS011;56061;51.748;19.620;2022-09-01T10:56:47;4.30;;;1.30;;
69005;SDS011;56061;51.748;19.620;2022-09-01T10:59:25;3.40;;;0.90;;
69005;SDS011;56061;51.748;19.620;2022-09-01T11:02:15;3.70;;;1.00;;
69005;SDS011;56061;51.748;19.620;2022-09-01T11:07:30;2.60;;;0.80;;
69005;SDS011;56061;51.748;19.620;2022-09-01T11:10:42;1.40;;;0.70;;
69005;SDS011;56061;51.748;19.620;2022-09-01T11:16:33;1.70;;;0.80;;
69005;SDS011;56061;51.748;19.620;2022-09-01T11:19:27;2.80;;;0.70;;
69005;SDS011;56061;51.748;19.620;2022-09-01T11:22:22;1.00;;;0.70;;
69005;SDS011;56061;51.748;19.620;2022-09-01T11:34:13;1.80;;;1.00;;
69005;SDS011;56061;51.748;19.620;2022-09-01T11:36:57;2.00;;;1.10;;
69005;SDS011;56061;51.748;19.620;2022-09-01T11:39:32;1.50;;;0.90;;
69005;SDS011;56061;51.748;19.620;2022-09-01T11:44:55;1.80;;;1.00;;
69005;SDS011;56061;51.748;19.620;2022-09-01T11:47:55;2.50;;;1.20;;
69005;SDS011;56061;51.748;19.620;2022-09-01T11:50:36;2.70;;;1.10;;
69005;SDS011;56061;51.748;19.620;2022-09-01T11:53:11;1.60;;;1.00;;
69005;SDS011;56061;51.748;19.620;2022-09-01T11:55:43;1.50;;;1.00;;
69005;SDS011;56061;51.748;19.620;2022-09-01T11:58:39;1.60;;;0.90;;
69005;SDS011;56061;51.748;19.620;2022-09-01T12:01:22;1.60;;;1.00;;
69005;SDS011;56061;51.748;19.620;2022-09-01T12:04:21;1.10;;;0.80;;
69005;SDS011;56061;51.748;19.620;2022-09-01T12:06:52;2.10;;;0.80;;
69005;SDS011;56061;51.748;19.620;2022-09-01T12:09:30;1.20;;;0.80;;
69005;SDS011;56061;51.748;19.620;2022-09-01T12:12:03;1.50;;;0.90;;
69005;SDS011;56061;51.748;19.620;2022-09-01T12:14:32;1.60;;;0.90;;
69005;SDS011;56061;51.748;19.620;2022-09-01T12:17:22;2.10;;;1.00;;
69005;SDS011;56061;51.748;19.620;2022-09-01T12:19:48;2.90;;;0.80;;
69005;SDS011;56061;51.748;19.620;2022-09-01T12:22:19;2.20;;;1.00;;
69005;SDS011;56061;51.748;19.620;2022-09-01T12:24:50;2.40;;;1.00;;
69005;SDS011;56061;51.748;19.620;2022-09-01T12:27:21;2.80;;;0.90;;
69005;SDS011;56061;51.748;19.620;2022-09-01T12:29:49;1.20;;;0.70;;
69005;SDS011;56061;51.748;19.620;2022-09-01T12:32:17;2.50;;;1.00;;
69005;SDS011;56061;51.748;19.620;2022-09-01T12:34:59;3.40;;;1.00;;
69005;SDS011;56061;51.748;19.620;2022-09-01T12:37:36;1.40;;;1.00;;
69005;SDS011;56061;51.748;19.620;2022-09-01T12:40:03;1.60;;;0.90;;
69005;SDS011;56061;51.748;19.620;2022-09-01T12:42:32;1.20;;;0.90;;
69005;SDS011;56061;51.748;19.620;2022-09-01T12:45:09;1.40;;;0.90;;
69005;SDS011;56061;51.748;19.620;2022-09-01T12:52:52;1.30;;;1.10;;
69005;SDS011;56061;51.748;19.620;2022-09-01T12:58:22;1.40;;;1.00;;
69005;SDS011;56061;51.748;19.620;2022-09-01T13:00:59;1.70;;;1.00;;
69005;SDS011;56061;51.748;19.620;2022-09-01T13:04:15;1.30;;;0.80;;
69005;SDS011;56061;51.748;19.620;2022-09-01T13:07:01;0.90;;;0.70;;
69005;SDS011;56061;51.748;19.620;2022-09-01T13:09:31;2.70;;;1.00;;
69005;SDS011;56061;51.748;19.620;2022-09-01T13:12:17;2.30;;;0.80;;
69005;SDS011;56061;51.748;19.620;2022-09-01T13:14:46;3.70;;;0.90;;
69005;SDS011;56061;51.748;19.620;2022-09-01T13:17:13;3.00;;;0.80;;
69005;SDS011;56061;51.748;19.620;2022-09-01T13:19:41;2.70;;;1.00;;
69005;SDS011;56061;51.748;19.620;2022-09-01T13:22:08;1.30;;;0.80;;
69005;SDS011;56061;51.748;19.620;2022-09-01T13:24:35;2.10;;;0.80;;
69005;SDS011;56061;51.748;19.620;2022-09-01T13:27:02;1.00;;;0.70;;
69005;SDS011;56061;51.748;19.620;2022-09-01T13:29:46;1.20;;;0.70;;
69005;SDS011;56061;51.748;19.620;2022-09-01T13:32:14;1.70;;;0.80;;
69005;SDS011;56061;51.748;19.620;2022-09-01T13:34:45;1.50;;;1.00;;
69005;SDS011;56061;51.748;19.620;2022-09-01T13:37:20;1.40;;;0.90;;
69005;SDS011;56061;51.748;19.620;2022-09-01T13:39:48;1.50;;;0.90;;
69005;SDS011;56061;51.748;19.620;2022-09-01T13:42:15;2.10;;;1.00;;
69005;SDS011;56061;51.748;19.620;2022-09-01T13:44:42;1.90;;;1.00;;
69005;SDS011;56061;51.748;19.620;2022-09-01T13:47:10;2.00;;;0.80;;
69005;SDS011;56061;51.748;19.620;2022-09-01T13:49:58;1.40;;;0.90;;
69005;SDS011;56061;51.748;19.620;2022-09-01T13:52:38;2.70;;;1.00;;
69005;SDS011;56061;51.748;19.620;2022-09-01T13:55:12;2.00;;;1.00;;
69005;SDS011;56061;51.748;19.620;2022-09-01T13:57:48;2.50;;;1.20;;
69005;SDS011;56061;51.748;19.620;2022-09-01T14:00:23;2.50;;;1.10;;
69005;SDS011;56061;51.748;19.620;2022-09-01T14:02:54;1.40;;;1.10;;
69005;SDS011;56061;51.748;19.620;2022-09-01T14:05:32;2.10;;;0.90;;
69005;SDS011;56061;51.748;19.620;2022-09-01T14:08:01;3.30;;;1.10;;
69005;SDS011;56061;51.748;19.620;2022-09-01T14:10:29;2.90;;;0.90;;
69005;SDS011;56061;51.748;19.620;2022-09-01T14:12:58;1.30;;;0.80;;
69005;SDS011;56061;51.748;19.620;2022-09-01T14:15:29;1.90;;;0.80;;
69005;SDS011;56061;51.748;19.620;2022-09-01T14:18:03;1.60;;;0.90;;
69005;SDS011;56061;51.748;19.620;2022-09-01T14:20:33;0.90;;;0.70;;
69005;SDS011;56061;51.748;19.620;2022-09-01T14:23:03;1.50;;;0.90;;
69005;SDS011;56061;51.748;19.620;2022-09-01T14:25:33;1.60;;;1.10;;
69005;SDS011;56061;51.748;19.620;2022-09-01T14:28:04;3.10;;;1.30;;
69005;SDS011;56061;51.748;19.620;2022-09-01T14:30:31;2.30;;;1.10;;
69005;SDS011;56061;51.748;19.620;2022-09-01T14:32:59;2.20;;;1.00;;
69005;SDS011;56061;51.748;19.620;2022-09-01T14:35:26;1.60;;;1.00;;
69005;SDS011;56061;51.748;19.620;2022-09-01T14:37:54;2.20;;;0.90;;
69005;SDS011;56061;51.748;19.620;2022-09-01T14:40:35;1.80;;;0.80;;
69005;SDS011;56061;51.748;19.620;2022-09-01T14:43:06;3.60;;;0.90;;
69005;SDS011;56061;51.748;19.620;2022-09-01T14:45:40;3.70;;;0.90;;
69005;SDS011;56061;51.748;19.620;2022-09-01T14:48:34;1.50;;;0.80;;
69005;SDS011;56061;51.748;19.620;2022-09-01T14:51:01;3.10;;;1.00;;
69005;SDS011;56061;51.748;19.620;2022-09-01T14:53:29;3.10;;;0.90;;
69005;SDS011;56061;51.748;19.620;2022-09-01T14:56:12;4.70;;;1.00;;
69005;SDS011;56061;51.748;19.620;2022-09-01T14:58:38;4.30;;;1.30;;
69005;SDS011;56061;51.748;19.620;2022-09-01T15:01:07;2.80;;;0.90;;
69005;SDS011;56061;51.748;19.620;2022-09-01T15:04:05;5.40;;;1.10;;
69005;SDS011;56061;51.748;19.620;2022-09-01T15:06:32;4.70;;;1.30;;
69005;SDS011;56061;51.748;19.620;2022-09-01T15:08:59;3.60;;;1.00;;
69005;SDS011;56061;51.748;19.620;2022-09-01T15:11:26;2.50;;;1.20;;
69005;SDS011;56061;51.748;19.620;2022-09-01T15:13:53;2.00;;;0.90;;
69005;SDS011;56061;51.748;19.620;2022-09-01T15:16:29;3.40;;;0.90;;
69005;SDS011;56061;51.748;19.620;2022-09-01T15:19:00;2.40;;;0.80;;
69005;SDS011;56061;51.748;19.620;2022-09-01T15:21:29;2.20;;;0.80;;
69005;SDS011;56061;51.748;19.620;2022-09-01T15:23:57;3.00;;;0.80;;
69005;SDS011;56061;51.748;19.620;2022-09-01T15:26:35;1.70;;;0.80;;
69005;SDS011;56061;51.748;19.620;2022-09-01T15:29:03;2.80;;;0.80;;
69005;SDS011;56061;51.748;19.620;2022-09-01T15:31:30;2.70;;;0.80;;
69005;SDS011;56061;51.748;19.620;2022-09-01T15:34:01;1.80;;;0.90;;
69005;SDS011;56061;51.748;19.620;2022-09-01T15:36:29;1.60;;;0.80;;
69005;SDS011;56061;51.748;19.620;2022-09-01T15:39:10;1.60;;;0.90;;
69005;SDS011;56061;51.748;19.620;2022-09-01T15:41:37;2.70;;;1.30;;
69005;SDS011;56061;51.748;19.620;2022-09-01T15:44:05;4.10;;;1.20;;
69005;SDS011;56061;51.748;19.620;2022-09-01T15:46:35;3.90;;;1.20;;
69005;SDS011;56061;51.748;19.620;2022-09-01T15:49:09;2.60;;;0.80;;
69005;SDS011;56061;51.748;19.620;2022-09-01T15:51:40;3.20;;;1.10;;
69005;SDS011;56061;51.748;19.620;2022-09-01T15:54:09;2.80;;;1.00;;
69005;SDS011;56061;51.748;19.620;2022-09-01T15:56:41;1.30;;;0.70;;
69005;SDS011;56061;51.748;19.620;2022-09-01T15:59:17;2.60;;;1.00;;
69005;SDS011;56061;51.748;19.620;2022-09-01T16:01:44;2.40;;;0.90;;
69005;SDS011;56061;51.748;19.620;2022-09-01T16:04:14;1.30;;;0.70;;
69005;SDS011;56061;51.748;19.620;2022-09-01T16:06:47;1.60;;;0.80;;